sensor_id;sensor_type;location;lat;lon;timestamp;pressure;altitude;pressure_sealevel;temperature;humidity
4617;BME280;2321;42.704;23.384;2024-03-29T00:01:04;95221.84;;;13.58;51.82
4617;BME280;2321;42.704;23.384;2024-03-29T00:03:29;95215.25;;;13.54;51.81
4617;BME280;2321;42.704;23.384;2024-03-29T00:05:55;95212.59;;;13.54;51.54
4617;BME280;2321;42.704;23.384;2024-03-29T00:08:22;95221.00;;;13.58;51.60
4617;BME280;2321;42.704;23.384;2024-03-29T00:10:48;95224.09;;;13.55;51.82
4617;BME280;2321;42.704;23.384;2024-03-29T00:13:14;95223.69;;;13.58;51.45
4617;BME280;2321;42.704;23.384;2024-03-29T00:15:40;95225.13;;;13.60;51.43
4617;BME280;2321;42.704;23.384;2024-03-29T00:18:07;95222.66;;;13.59;51.27
4617;BME280;2321;42.704;23.384;2024-03-29T00:20:33;95231.06;;;13.56;51.07
4617;BME280;2321;42.704;23.384;2024-03-29T00:22:59;95232.13;;;13.55;51.31
4617;BME280;2321;42.704;23.384;2024-03-29T00:25:25;95229.88;;;13.51;51.32
4617;BME280;2321;42.704;23.384;2024-03-29T00:27:51;95235.84;;;13.47;51.64
4617;BME280;2321;42.704;23.384;2024-03-29T00:30:17;95257.69;;;13.44;52.01
4617;BME280;2321;42.704;23.384;2024-03-29T00:32:43;95247.47;;;13.34;53.31
4617;BME280;2321;42.704;23.384;2024-03-29T00:35:11;95248.94;;;13.23;53.75
4617;BME280;2321;42.704;23.384;2024-03-29T00:37:37;95245.97;;;12.92;55.41
4617;BME280;2321;42.704;23.384;2024-03-29T00:40:03;95245.41;;;12.76;56.39
4617;BME280;2321;42.704;23.384;2024-03-29T00:42:29;95254.25;;;12.70;57.12
4617;BME280;2321;42.704;23.384;2024-03-29T00:44:55;95239.28;;;12.62;57.78
4617;BME280;2321;42.704;23.384;2024-03-29T00:47:21;95240.13;;;12.56;57.74
4617;BME280;2321;42.704;23.384;2024-03-29T00:49:47;95243.44;;;12.51;58.52
4617;BME280;2321;42.704;23.384;2024-03-29T00:52:15;95250.00;;;12.41;58.48
4617;BME280;2321;42.704;23.384;2024-03-29T00:54:41;95246.94;;;12.38;59.63
4617;BME280;2321;42.704;23.384;2024-03-29T00:57:07;95249.19;;;12.34;60.49
4617;BME280;2321;42.704;23.384;2024-03-29T00:59:33;95255.34;;;12.21;61.50
4617;BME280;2321;42.704;23.384;2024-03-29T01:01:59;95256.56;;;12.12;62.23
4617;BME280;2321;42.704;23.384;2024-03-29T01:04:25;95243.41;;;12.03;62.89
4617;BME280;2321;42.704;23.384;2024-03-29T01:06:51;95245.28;;;11.89;64.50
4617;BME280;2321;42.704;23.384;2024-03-29T01:09:18;95248.75;;;11.83;65.65
4617;BME280;2321;42.704;23.384;2024-03-29T01:11:44;95251.81;;;11.73;66.13
4617;BME280;2321;42.704;23.384;2024-03-29T01:14:10;95248.94;;;11.68;66.71
4617;BME280;2321;42.704;23.384;2024-03-29T01:16:36;95262.25;;;11.61;67.73
4617;BME280;2321;42.704;23.384;2024-03-29T01:19:02;95259.16;;;11.57;68.15
4617;BME280;2321;42.704;23.384;2024-03-29T01:21:28;95264.31;;;11.59;67.66
4617;BME280;2321;42.704;23.384;2024-03-29T01:23:54;95262.06;;;11.55;68.43
4617;BME280;2321;42.704;23.384;2024-03-29T01:26:22;95257.91;;;11.46;69.35
4617;BME280;2321;42.704;23.384;2024-03-29T01:28:49;95260.59;;;11.53;68.99
4617;BME280;2321;42.704;23.384;2024-03-29T01:31:15;95259.78;;;11.52;69.23
4617;BME280;2321;42.704;23.384;2024-03-29T01:33:41;95279.47;;;11.58;70.21
4617;BME280;2321;42.704;23.384;2024-03-29T01:36:07;95271.50;;;11.65;70.64
4617;BME280;2321;42.704;23.384;2024-03-29T01:38:34;95278.47;;;11.73;70.46
4617;BME280;2321;42.704;23.384;2024-03-29T01:41:00;95287.91;;;11.75;70.17
4617;BME280;2321;42.704;23.384;2024-03-29T01:43:28;95291.84;;;11.80;69.33
4617;BME280;2321;42.704;23.384;2024-03-29T01:45:56;95295.34;;;11.80;69.53
4617;BME280;2321;42.704;23.384;2024-03-29T01:48:25;95294.31;;;11.88;69.22
4617;BME280;2321;42.704;23.384;2024-03-29T01:50:56;95291.22;;;11.84;69.46
4617;BME280;2321;42.704;23.384;2024-03-29T01:53:24;95285.47;;;11.81;69.62
4617;BME280;2321;42.704;23.384;2024-03-29T01:55:53;95299.41;;;11.69;68.82
4617;BME280;2321;42.704;23.384;2024-03-29T01:58:22;95307.41;;;11.69;69.46
4617;BME280;2321;42.704;23.384;2024-03-29T02:00:53;95307.19;;;11.64;69.70
4617;BME280;2321;42.704;23.384;2024-03-29T02:03:20;95313.97;;;11.73;69.12
4617;BME280;2321;42.704;23.384;2024-03-29T02:05:48;95313.16;;;11.73;68.40
4617;BME280;2321;42.704;23.384;2024-03-29T02:08:16;95329.59;;;11.83;67.17
4617;BME280;2321;42.704;23.384;2024-03-29T02:10:44;95344.59;;;11.91;67.26
4617;BME280;2321;42.704;23.384;2024-03-29T02:13:12;95341.53;;;11.94;67.74
4617;BME280;2321;42.704;23.384;2024-03-29T02:15:39;95338.44;;;11.91;66.10
4617;BME280;2321;42.704;23.384;2024-03-29T02:18:08;95340.09;;;11.92;65.77
4617;BME280;2321;42.704;23.384;2024-03-29T02:20:35;95358.13;;;11.96;65.33
4617;BME280;2321;42.704;23.384;2024-03-29T02:23:06;95368.25;;;12.08;64.07
4617;BME280;2321;42.704;23.384;2024-03-29T02:25:35;95369.84;;;12.02;64.15
4617;BME280;2321;42.704;23.384;2024-03-29T02:28:03;95369.06;;;12.02;63.78
4617;BME280;2321;42.704;23.384;2024-03-29T02:30:31;95377.47;;;11.98;64.50
4617;BME280;2321;42.704;23.384;2024-03-29T02:32:58;95383.19;;;11.95;64.57
4617;BME280;2321;42.704;23.384;2024-03-29T02:35:25;95389.34;;;11.89;64.93
4617;BME280;2321;42.704;23.384;2024-03-29T02:37:52;95381.09;;;11.84;66.19
4617;BME280;2321;42.704;23.384;2024-03-29T02:40:19;95379.88;;;11.93;65.48
4617;BME280;2321;42.704;23.384;2024-03-29T02:42:49;95385.03;;;11.95;65.55
4617;BME280;2321;42.704;23.384;2024-03-29T02:45:16;95391.59;;;11.92;66.25
4617;BME280;2321;42.704;23.384;2024-03-29T02:47:44;95389.56;;;12.01;66.00
4617;BME280;2321;42.704;23.384;2024-03-29T02:50:12;95389.56;;;12.01;66.07
4617;BME280;2321;42.704;23.384;2024-03-29T02:52:39;95400.06;;;12.09;65.14
4617;BME280;2321;42.704;23.384;2024-03-29T02:55:05;95401.06;;;12.08;65.60
4617;BME280;2321;42.704;23.384;2024-03-29T02:57:33;95407.22;;;12.09;65.87
4617;BME280;2321;42.704;23.384;2024-03-29T03:00:00;95399.66;;;12.13;65.37
4617;BME280;2321;42.704;23.384;2024-03-29T03:02:28;95396.16;;;12.12;65.11
4617;BME280;2321;42.704;23.384;2024-03-29T03:04:54;95399.09;;;12.17;64.67
4617;BME280;2321;42.704;23.384;2024-03-29T03:07:21;95406.44;;;12.15;65.16
4617;BME280;2321;42.704;23.384;2024-03-29T03:10:06;95405.44;;;12.16;65.11
4617;BME280;2321;42.704;23.384;2024-03-29T03:12:50;95412.81;;;12.21;65.29
4617;BME280;2321;42.704;23.384;2024-03-29T03:15:19;95412.44;;;12.24;64.67
4617;BME280;2321;42.704;23.384;2024-03-29T03:17:46;95422.50;;;12.29;64.96
4617;BME280;2321;42.704;23.384;2024-03-29T03:20:13;95430.72;;;12.34;63.77
4617;BME280;2321;42.704;23.384;2024-03-29T03:22:41;95450.66;;;12.38;64.02
4617;BME280;2321;42.704;23.384;2024-03-29T03:25:08;95454.13;;;12.39;63.87
4617;BME280;2321;42.704;23.384;2024-03-29T03:27:34;95439.19;;;12.45;63.98
4617;BME280;2321;42.704;23.384;2024-03-29T03:30:01;95451.06;;;12.49;64.24
4617;BME280;2321;42.704;23.384;2024-03-29T03:32:29;95452.50;;;12.51;63.22
4617;BME280;2321;42.704;23.384;2024-03-29T03:34:56;95425.59;;;12.33;64.03
4617;BME280;2321;42.704;23.384;2024-03-29T03:37:22;95458.91;;;12.50;63.87
4617;BME280;2321;42.704;23.384;2024-03-29T03:39:49;95464.25;;;12.50;64.45
4617;BME280;2321;42.704;23.384;2024-03-29T03:42:15;95472.03;;;12.52;65.27
4617;BME280;2321;42.704;23.384;2024-03-29T03:44:42;95473.50;;;12.48;65.69
4617;BME280;2321;42.704;23.384;2024-03-29T03:47:08;95480.25;;;12.44;65.90
4617;BME280;2321;42.704;23.384;2024-03-29T03:49:36;95475.09;;;12.35;67.08
4617;BME280;2321;42.704;23.384;2024-03-29T03:52:02;95486.75;;;12.27;68.20
4617;BME280;2321;42.704;23.384;2024-03-29T03:54:30;95484.91;;;12.21;68.33
4617;BME280;2321;42.704;23.384;2024-03-29T03:56:56;95491.22;;;12.13;69.50
4617;BME280;2321;42.704;23.384;2024-03-29T03:59:23;95494.28;;;12.10;69.70
4617;BME280;2321;42.704;23.384;2024-03-29T04:01:49;95492.41;;;12.04;70.77
4617;BME280;2321;42.704;23.384;2024-03-29T04:04:17;95499.56;;;11.96;70.77
4617;BME280;2321;42.704;23.384;2024-03-29T04:06:45;95496.66;;;11.91;70.85
4617;BME280;2321;42.704;23.384;2024-03-29T04:09:14;95503.41;;;11.87;71.19
4617;BME280;2321;42.704;23.384;2024-03-29T04:11:41;95513.66;;;11.83;71.38
4617;BME280;2321;42.704;23.384;2024-03-29T04:14:08;95509.75;;;11.79;71.89
4617;BME280;2321;42.704;23.384;2024-03-29T04:16:34;95510.13;;;11.76;73.49
4617;BME280;2321;42.704;23.384;2024-03-29T04:19:02;95524.88;;;11.72;73.68
4617;BME280;2321;42.704;23.384;2024-03-29T04:21:28;95516.97;;;11.57;74.13
4617;BME280;2321;42.704;23.384;2024-03-29T04:23:56;95535.91;;;11.62;73.88
4617;BME280;2321;42.704;23.384;2024-03-29T04:26:22;95540.38;;;11.54;75.01
4617;BME280;2321;42.704;23.384;2024-03-29T04:28:49;95544.19;;;11.45;76.45
4617;BME280;2321;42.704;23.384;2024-03-29T04:31:15;95536.59;;;11.42;77.91
4617;BME280;2321;42.704;23.384;2024-03-29T04:33:42;95539.63;;;11.39;79.15
4617;BME280;2321;42.704;23.384;2024-03-29T04:36:08;95548.47;;;11.39;80.11
4617;BME280;2321;42.704;23.384;2024-03-29T04:38:35;95553.28;;;11.29;79.65
4617;BME280;2321;42.704;23.384;2024-03-29T04:41:04;95570.13;;;11.07;82.33
4617;BME280;2321;42.704;23.384;2024-03-29T04:43:31;95578.06;;;10.78;83.75
4617;BME280;2321;42.704;23.384;2024-03-29T04:46:02;95579.81;;;10.71;84.08
4617;BME280;2321;42.704;23.384;2024-03-29T04:48:31;95584.78;;;10.74;85.88
4617;BME280;2321;42.704;23.384;2024-03-29T04:50:58;95581.09;;;10.75;86.42
4617;BME280;2321;42.704;23.384;2024-03-29T04:53:25;95575.84;;;10.82;87.10
4617;BME280;2321;42.704;23.384;2024-03-29T04:55:56;95574.38;;;10.79;87.17
4617;BME280;2321;42.704;23.384;2024-03-29T04:58:25;95597.66;;;10.93;86.73
4617;BME280;2321;42.704;23.384;2024-03-29T05:00:54;95591.41;;;11.00;87.66
4617;BME280;2321;42.704;23.384;2024-03-29T05:03:22;95587.78;;;11.08;86.93
4617;BME280;2321;42.704;23.384;2024-03-29T05:05:50;95589.69;;;11.15;86.40
4617;BME280;2321;42.704;23.384;2024-03-29T05:08:17;95590.56;;;11.22;86.11
4617;BME280;2321;42.704;23.384;2024-03-29T05:10:45;95599.81;;;11.26;85.96
4617;BME280;2321;42.704;23.384;2024-03-29T05:13:16;95607.88;;;11.33;86.61
4617;BME280;2321;42.704;23.384;2024-03-29T05:15:44;95609.97;;;11.38;85.72
4617;BME280;2321;42.704;23.384;2024-03-29T05:18:11;95615.34;;;11.44;83.81
4617;BME280;2321;42.704;23.384;2024-03-29T05:20:38;95618.84;;;11.45;83.43
4617;BME280;2321;42.704;23.384;2024-03-29T05:23:07;95621.06;;;11.41;84.15
4617;BME280;2321;42.704;23.384;2024-03-29T05:25:34;95630.47;;;11.37;83.68
4617;BME280;2321;42.704;23.384;2024-03-29T05:28:01;95622.41;;;11.30;82.47
4617;BME280;2321;42.704;23.384;2024-03-29T05:30:29;95632.94;;;11.39;82.71
4617;BME280;2321;42.704;23.384;2024-03-29T05:32:57;95636.88;;;11.43;83.56
4617;BME280;2321;42.704;23.384;2024-03-29T05:35:24;95632.56;;;11.42;84.50
4617;BME280;2321;42.704;23.384;2024-03-29T05:37:51;95629.97;;;11.49;85.42
4617;BME280;2321;42.704;23.384;2024-03-29T05:40:20;95623.31;;;11.66;86.06
4617;BME280;2321;42.704;23.384;2024-03-29T05:42:50;95628.38;;;11.83;85.74
4617;BME280;2321;42.704;23.384;2024-03-29T05:45:24;95627.25;;;11.99;84.18
4617;BME280;2321;42.704;23.384;2024-03-29T05:47:53;95623.00;;;12.12;82.42
4617;BME280;2321;42.704;23.384;2024-03-29T05:50:22;95620.47;;;12.26;81.40
4617;BME280;2321;42.704;23.384;2024-03-29T05:52:50;95630.56;;;12.37;79.39
4617;BME280;2321;42.704;23.384;2024-03-29T05:55:17;95616.91;;;12.54;79.81
4617;BME280;2321;42.704;23.384;2024-03-29T05:57:44;95624.53;;;12.71;77.74
4617;BME280;2321;42.704;23.384;2024-03-29T06:00:13;95631.56;;;12.85;74.92
4617;BME280;2321;42.704;23.384;2024-03-29T06:02:43;95631.81;;;12.98;73.84
4617;BME280;2321;42.704;23.384;2024-03-29T06:05:11;95626.91;;;13.08;73.07
4617;BME280;2321;42.704;23.384;2024-03-29T06:07:40;95639.69;;;13.26;71.98
4617;BME280;2321;42.704;23.384;2024-03-29T06:10:07;95648.38;;;13.42;69.58
4617;BME280;2321;42.704;23.384;2024-03-29T06:12:36;95647.19;;;13.58;67.83
4617;BME280;2321;42.704;23.384;2024-03-29T06:15:05;95643.66;;;13.71;67.62
4617;BME280;2321;42.704;23.384;2024-03-29T06:17:51;95651.28;;;13.88;64.93
4617;BME280;2321;42.704;23.384;2024-03-29T06:20:19;95650.47;;;13.94;63.66
4617;BME280;2321;42.704;23.384;2024-03-29T06:22:47;95649.22;;;14.04;63.32
4617;BME280;2321;42.704;23.384;2024-03-29T06:25:15;95644.25;;;14.14;61.25
4617;BME280;2321;42.704;23.384;2024-03-29T06:27:42;95648.75;;;14.27;61.15
4617;BME280;2321;42.704;23.384;2024-03-29T06:30:13;95651.00;;;14.37;62.09
4617;BME280;2321;42.704;23.384;2024-03-29T06:32:40;95648.91;;;14.53;60.25
4617;BME280;2321;42.704;23.384;2024-03-29T06:35:08;95652.59;;;14.59;60.11
4617;BME280;2321;42.704;23.384;2024-03-29T06:37:35;95649.25;;;14.64;59.47
4617;BME280;2321;42.704;23.384;2024-03-29T06:40:05;95665.50;;;14.76;57.88
4617;BME280;2321;42.704;23.384;2024-03-29T06:42:33;95665.88;;;14.86;58.63
4617;BME280;2321;42.704;23.384;2024-03-29T06:45:00;95660.91;;;14.97;60.72
4617;BME280;2321;42.704;23.384;2024-03-29T06:47:28;95668.72;;;15.05;61.77
4617;BME280;2321;42.704;23.384;2024-03-29T06:50:01;95665.78;;;15.13;61.20
4617;BME280;2321;42.704;23.384;2024-03-29T06:52:28;95669.63;;;15.24;59.17
4617;BME280;2321;42.704;23.384;2024-03-29T06:54:55;95662.38;;;15.32;59.60
4617;BME280;2321;42.704;23.384;2024-03-29T06:57:24;95659.97;;;15.49;59.93
4617;BME280;2321;42.704;23.384;2024-03-29T06:59:54;95658.44;;;15.67;59.34
4617;BME280;2321;42.704;23.384;2024-03-29T07:02:22;95655.91;;;15.72;59.17
4617;BME280;2321;42.704;23.384;2024-03-29T07:04:49;95663.47;;;15.82;58.94
4617;BME280;2321;42.704;23.384;2024-03-29T07:07:16;95667.50;;;15.92;58.97
4617;BME280;2321;42.704;23.384;2024-03-29T07:09:43;95665.16;;;16.02;58.98
4617;BME280;2321;42.704;23.384;2024-03-29T07:12:10;95671.69;;;16.13;58.50
4617;BME280;2321;42.704;23.384;2024-03-29T07:14:38;95681.13;;;16.22;56.95
4617;BME280;2321;42.704;23.384;2024-03-29T07:17:05;95677.72;;;16.34;58.15
4617;BME280;2321;42.704;23.384;2024-03-29T07:19:33;95670.91;;;16.50;56.59
4617;BME280;2321;42.704;23.384;2024-03-29T07:22:00;95668.69;;;16.66;56.71
4617;BME280;2321;42.704;23.384;2024-03-29T07:24:27;95669.56;;;16.79;52.60
4617;BME280;2321;42.704;23.384;2024-03-29T07:26:54;95676.34;;;17.00;49.22
4617;BME280;2321;42.704;23.384;2024-03-29T07:29:21;95672.88;;;17.12;49.28
4617;BME280;2321;42.704;23.384;2024-03-29T07:31:49;95680.00;;;17.25;49.44
4617;BME280;2321;42.704;23.384;2024-03-29T07:34:17;95681.69;;;17.38;46.99
4617;BME280;2321;42.704;23.384;2024-03-29T07:36:44;95677.47;;;17.42;47.26
4617;BME280;2321;42.704;23.384;2024-03-29T07:39:11;95669.22;;;17.56;46.66
4617;BME280;2321;42.704;23.384;2024-03-29T07:41:38;95668.56;;;17.72;45.37
4617;BME280;2321;42.704;23.384;2024-03-29T07:44:05;95666.34;;;17.81;44.74
4617;BME280;2321;42.704;23.384;2024-03-29T07:46:34;95670.81;;;17.88;44.69
4617;BME280;2321;42.704;23.384;2024-03-29T07:49:03;95664.72;;;17.92;44.47
4617;BME280;2321;42.704;23.384;2024-03-29T07:51:30;95664.50;;;17.94;44.19
4617;BME280;2321;42.704;23.384;2024-03-29T07:53:58;95672.69;;;17.99;43.70
4617;BME280;2321;42.704;23.384;2024-03-29T07:56:25;95671.31;;;18.08;43.97
4617;BME280;2321;42.704;23.384;2024-03-29T07:58:52;95668.81;;;18.19;43.96
4617;BME280;2321;42.704;23.384;2024-03-29T08:01:20;95661.94;;;18.35;44.00
4617;BME280;2321;42.704;23.384;2024-03-29T08:03:50;95670.59;;;18.49;42.59
4617;BME280;2321;42.704;23.384;2024-03-29T08:06:18;95677.16;;;18.54;42.74
4617;BME280;2321;42.704;23.384;2024-03-29T08:08:46;95667.56;;;18.58;43.28
4617;BME280;2321;42.704;23.384;2024-03-29T08:11:13;95676.66;;;18.69;43.49
4617;BME280;2321;42.704;23.384;2024-03-29T08:13:40;95658.72;;;18.75;43.31
4617;BME280;2321;42.704;23.384;2024-03-29T08:16:08;95655.50;;;18.90;42.23
4617;BME280;2321;42.704;23.384;2024-03-29T08:18:36;95648.81;;;18.92;42.02
4617;BME280;2321;42.704;23.384;2024-03-29T08:21:04;95656.78;;;18.99;41.46
4617;BME280;2321;42.704;23.384;2024-03-29T08:23:39;95650.81;;;18.97;42.35
4617;BME280;2321;42.704;23.384;2024-03-29T08:26:06;95654.50;;;19.08;42.25
4617;BME280;2321;42.704;23.384;2024-03-29T08:28:33;95646.53;;;19.13;41.86
4617;BME280;2321;42.704;23.384;2024-03-29T08:31:05;95646.34;;;19.32;41.26
4617;BME280;2321;42.704;23.384;2024-03-29T08:33:34;95649.72;;;19.40;41.40
4617;BME280;2321;42.704;23.384;2024-03-29T08:36:03;95648.19;;;19.44;40.98
4617;BME280;2321;42.704;23.384;2024-03-29T08:38:31;95639.50;;;19.42;41.99
4617;BME280;2321;42.704;23.384;2024-03-29T08:40:59;95639.41;;;19.54;41.73
4617;BME280;2321;42.704;23.384;2024-03-29T08:43:26;95641.00;;;19.67;40.50
4617;BME280;2321;42.704;23.384;2024-03-29T08:45:53;95643.97;;;19.65;41.57
4617;BME280;2321;42.704;23.384;2024-03-29T08:48:22;95638.97;;;19.74;41.34
4617;BME280;2321;42.704;23.384;2024-03-29T08:50:49;95633.63;;;19.79;40.68
4617;BME280;2321;42.704;23.384;2024-03-29T08:53:16;95628.91;;;19.87;39.78
4617;BME280;2321;42.704;23.384;2024-03-29T08:55:46;95629.38;;;19.84;41.18
4617;BME280;2321;42.704;23.384;2024-03-29T08:58:15;95633.31;;;19.93;40.20
4617;BME280;2321;42.704;23.384;2024-03-29T09:00:52;95627.97;;;19.98;40.41
4617;BME280;2321;42.704;23.384;2024-03-29T09:03:19;95628.13;;;20.09;43.20
4617;BME280;2321;42.704;23.384;2024-03-29T09:05:46;95607.34;;;20.27;40.82
4617;BME280;2321;42.704;23.384;2024-03-29T09:08:13;95614.25;;;20.40;40.03
4617;BME280;2321;42.704;23.384;2024-03-29T09:10:40;95613.56;;;20.50;40.16
4617;BME280;2321;42.704;23.384;2024-03-29T09:13:08;95608.03;;;20.62;40.17
4617;BME280;2321;42.704;23.384;2024-03-29T09:15:38;95602.75;;;20.72;40.77
4617;BME280;2321;42.704;23.384;2024-03-29T09:18:05;95596.13;;;20.85;42.01
4617;BME280;2321;42.704;23.384;2024-03-29T09:20:43;95589.81;;;21.02;40.09
4617;BME280;2321;42.704;23.384;2024-03-29T09:23:10;95588.31;;;21.11;40.25
4617;BME280;2321;42.704;23.384;2024-03-29T09:25:41;95584.13;;;21.26;39.42
4617;BME280;2321;42.704;23.384;2024-03-29T09:28:08;95585.06;;;21.37;38.26
4617;BME280;2321;42.704;23.384;2024-03-29T09:30:47;95580.53;;;21.48;36.60
4617;BME280;2321;42.704;23.384;2024-03-29T09:33:16;95574.09;;;21.54;36.43
4617;BME280;2321;42.704;23.384;2024-03-29T09:35:43;95564.31;;;21.53;38.32
4617;BME280;2321;42.704;23.384;2024-03-29T09:38:10;95556.00;;;21.65;38.34
4617;BME280;2321;42.704;23.384;2024-03-29T09:40:37;95554.50;;;21.80;39.75
4617;BME280;2321;42.704;23.384;2024-03-29T09:43:04;95554.34;;;21.92;38.94
4617;BME280;2321;42.704;23.384;2024-03-29T09:45:34;95554.38;;;21.97;36.95
4617;BME280;2321;42.704;23.384;2024-03-29T09:48:05;95556.03;;;22.04;37.09
4617;BME280;2321;42.704;23.384;2024-03-29T09:50:34;95556.78;;;21.99;36.65
4617;BME280;2321;42.704;23.384;2024-03-29T09:53:01;95545.72;;;22.01;37.33
4617;BME280;2321;42.704;23.384;2024-03-29T09:55:29;95539.44;;;21.95;36.66
4617;BME280;2321;42.704;23.384;2024-03-29T09:57:57;95534.22;;;21.88;36.61
4617;BME280;2321;42.704;23.384;2024-03-29T10:00:26;95510.28;;;21.74;36.65
4617;BME280;2321;42.704;23.384;2024-03-29T10:02:56;95539.97;;;21.92;36.32
4617;BME280;2321;42.704;23.384;2024-03-29T10:05:26;95520.88;;;21.76;35.47
4617;BME280;2321;42.704;23.384;2024-03-29T10:07:54;95541.03;;;21.91;35.44
4617;BME280;2321;42.704;23.384;2024-03-29T10:10:22;95538.63;;;21.94;36.05
4617;BME280;2321;42.704;23.384;2024-03-29T10:12:49;95537.06;;;22.04;35.57
4617;BME280;2321;42.704;23.384;2024-03-29T10:15:16;95529.47;;;22.06;36.40
4617;BME280;2321;42.704;23.384;2024-03-29T10:17:45;95526.81;;;22.16;36.54
4617;BME280;2321;42.704;23.384;2024-03-29T10:20:16;95531.72;;;22.19;35.04
4617;BME280;2321;42.704;23.384;2024-03-29T10:22:45;95533.38;;;22.26;34.72
4617;BME280;2321;42.704;23.384;2024-03-29T10:25:13;95530.66;;;22.31;34.48
4617;BME280;2321;42.704;23.384;2024-03-29T10:27:41;95526.84;;;22.22;34.57
4617;BME280;2321;42.704;23.384;2024-03-29T10:30:09;95526.06;;;22.31;34.77
4617;BME280;2321;42.704;23.384;2024-03-29T10:32:38;95529.88;;;22.36;34.05
4617;BME280;2321;42.704;23.384;2024-03-29T10:35:08;95521.47;;;22.32;34.79
4617;BME280;2321;42.704;23.384;2024-03-29T10:37:35;95518.53;;;22.44;35.27
4617;BME280;2321;42.704;23.384;2024-03-29T10:40:08;95517.47;;;22.56;34.36
4617;BME280;2321;42.704;23.384;2024-03-29T10:42:37;95516.69;;;22.66;34.78
4617;BME280;2321;42.704;23.384;2024-03-29T10:45:05;95509.13;;;22.73;34.40
4617;BME280;2321;42.704;23.384;2024-03-29T10:47:33;95508.56;;;22.71;34.42
4617;BME280;2321;42.704;23.384;2024-03-29T10:50:01;95508.03;;;22.69;34.29
4617;BME280;2321;42.704;23.384;2024-03-29T10:52:31;95508.31;;;22.72;34.24
4617;BME280;2321;42.704;23.384;2024-03-29T10:54:58;95508.59;;;22.76;34.23
4617;BME280;2321;42.704;23.384;2024-03-29T10:57:27;95508.88;;;22.85;34.49
4617;BME280;2321;42.704;23.384;2024-03-29T11:00:02;95504.28;;;22.91;34.13
4617;BME280;2321;42.704;23.384;2024-03-29T11:02:39;95502.66;;;22.90;34.02
4617;BME280;2321;42.704;23.384;2024-03-29T11:05:12;95500.22;;;22.93;34.04
4617;BME280;2321;42.704;23.384;2024-03-29T11:07:41;95488.00;;;22.96;33.32
4617;BME280;2321;42.704;23.384;2024-03-29T11:10:13;95492.34;;;23.02;34.20
4617;BME280;2321;42.704;23.384;2024-03-29T11:12:50;95493.44;;;23.01;33.96
4617;BME280;2321;42.704;23.384;2024-03-29T11:15:28;95488.53;;;22.98;33.77
4617;BME280;2321;42.704;23.384;2024-03-29T11:17:55;95487.47;;;22.99;34.13
4617;BME280;2321;42.704;23.384;2024-03-29T11:20:24;95496.44;;;23.10;34.45
4617;BME280;2321;42.704;23.384;2024-03-29T11:23:04;95485.31;;;23.27;33.74
4617;BME280;2321;42.704;23.384;2024-03-29T11:25:39;95484.22;;;23.23;34.03
4617;BME280;2321;42.704;23.384;2024-03-29T11:28:08;95478.78;;;23.18;33.71
4617;BME280;2321;42.704;23.384;2024-03-29T11:30:45;95485.28;;;23.22;33.65
4617;BME280;2321;42.704;23.384;2024-03-29T11:33:30;95481.75;;;23.37;33.63
4617;BME280;2321;42.704;23.384;2024-03-29T11:35:59;95485.56;;;23.31;33.84
4617;BME280;2321;42.704;23.384;2024-03-29T11:38:34;95485.28;;;23.22;34.37
4617;BME280;2321;42.704;23.384;2024-03-29T11:41:03;95486.38;;;23.32;33.84
4617;BME280;2321;42.704;23.384;2024-03-29T11:43:32;95488.28;;;23.31;34.32
4617;BME280;2321;42.704;23.384;2024-03-29T11:45:59;95480.94;;;23.32;35.07
4617;BME280;2321;42.704;23.384;2024-03-29T11:48:29;95483.94;;;23.40;33.99
4617;BME280;2321;42.704;23.384;2024-03-29T11:50:57;95480.13;;;23.42;34.06
4617;BME280;2321;42.704;23.384;2024-03-29T11:53:24;95471.97;;;23.47;33.96
4617;BME280;2321;42.704;23.384;2024-03-29T11:55:50;95464.94;;;23.56;34.07
4617;BME280;2321;42.704;23.384;2024-03-29T11:58:21;95465.19;;;23.70;34.33
4617;BME280;2321;42.704;23.384;2024-03-29T12:00:50;95461.34;;;23.82;33.75
4617;BME280;2321;42.704;23.384;2024-03-29T12:03:19;95455.34;;;23.85;33.87
4617;BME280;2321;42.704;23.384;2024-03-29T12:05:48;95455.34;;;23.85;34.30
4617;BME280;2321;42.704;23.384;2024-03-29T12:08:16;95448.78;;;23.97;34.23
4617;BME280;2321;42.704;23.384;2024-03-29T12:10:43;95442.78;;;24.00;33.85
4617;BME280;2321;42.704;23.384;2024-03-29T12:13:11;95452.03;;;24.04;34.04
4617;BME280;2321;42.704;23.384;2024-03-29T12:15:40;95456.38;;;24.10;33.94
4617;BME280;2321;42.704;23.384;2024-03-29T12:18:09;95450.38;;;24.13;33.78
4617;BME280;2321;42.704;23.384;2024-03-29T12:20:38;95448.13;;;24.21;34.37
4617;BME280;2321;42.704;23.384;2024-03-29T12:23:07;95450.31;;;24.24;33.97
4617;BME280;2321;42.704;23.384;2024-03-29T12:25:37;95452.47;;;24.27;33.27
4617;BME280;2321;42.704;23.384;2024-03-29T12:28:05;95435.34;;;24.21;33.74
4617;BME280;2321;42.704;23.384;2024-03-29T12:30:33;95445.91;;;24.44;33.62
4617;BME280;2321;42.704;23.384;2024-03-29T12:33:01;95439.28;;;24.55;33.76
4617;BME280;2321;42.704;23.384;2024-03-29T12:35:30;95439.28;;;24.55;33.55
4617;BME280;2321;42.704;23.384;2024-03-29T12:37:59;95441.72;;;24.57;32.75
4617;BME280;2321;42.704;23.384;2024-03-29T12:40:27;95446.06;;;24.58;33.25
4617;BME280;2321;42.704;23.384;2024-03-29T12:42:55;95433.28;;;24.58;32.58
4617;BME280;2321;42.704;23.384;2024-03-29T12:45:23;95435.47;;;24.56;32.62
4617;BME280;2321;42.704;23.384;2024-03-29T12:47:51;95431.97;;;24.51;32.82
4617;BME280;2321;42.704;23.384;2024-03-29T12:50:24;95436.78;;;24.64;32.65
4617;BME280;2321;42.704;23.384;2024-03-29T12:52:56;95426.16;;;24.68;31.75
4617;BME280;2321;42.704;23.384;2024-03-29T12:55:24;95430.69;;;24.78;32.19
4617;BME280;2321;42.704;23.384;2024-03-29T12:57:54;95430.06;;;24.91;31.98
4617;BME280;2321;42.704;23.384;2024-03-29T13:00:21;95425.69;;;24.96;32.38
4617;BME280;2321;42.704;23.384;2024-03-29T13:02:48;95439.78;;;25.08;31.02
4617;BME280;2321;42.704;23.384;2024-03-29T13:05:16;95427.50;;;25.06;31.32
4617;BME280;2321;42.704;23.384;2024-03-29T13:07:43;95429.16;;;25.01;31.65
4617;BME280;2321;42.704;23.384;2024-03-29T13:10:12;95430.81;;;24.97;31.25
4617;BME280;2321;42.704;23.384;2024-03-29T13:12:40;95421.13;;;24.86;31.43
4617;BME280;2321;42.704;23.384;2024-03-29T13:15:16;95420.25;;;24.90;31.12